Página principal
METAR-TAF:

METAR-TAF

Aeroportos :

Nukus, Uzbequistão

latitude: 42-28-48N, longitude: 059-37-48E, altura: 77 m

Observação actual do tempo

O boletim foi feito há 36 minutos, às 22:30 UTC
Vento 6 kt de nor-noroeste
Temperatura -3°C
Humidade 80%
Pressão 1034 hPa
Visibilidade 10 km ou mais
sem nuvens abaixo de 1500 metros e sem cumulonimbus

METAR: UTNN 152230Z 33006KT CAVOK M03/M06 Q1034 R33/CLRD60 NOSIG

Hora: 04:06 (23:06 UTC)

Previsão

O boletim foi feito há 6 horas e 6 minutos, às 17:00 UTC
Previsão válida de 15 às 18 UTC a 16 às 18 UTC
Vento 12 kt de nor-noroeste com rajadas de 22 kt
Visibilidade 10 km ou mais
Nuvens dispersasa uma altura de 4000 ft
Nuvens dispersasa uma altura de 10000 ft

TAF: UTNN 151700Z 1518/1618 34012G22KT 9999 SCT040 SCT100

Observações e previsões do tempo de mais de 4000 aeroportos (mensagens METAR e TAF).

As estações disponíveis são os pontos amarelos e vermelhos sobre o mapa.

Mova o rato sobre o mapa para ver o nome da estação.

Depois clique no ponto para visualizar as observações e previsões meteorológicas.

Para alterar o mapa : clique nos botões verdes com uma cruz preta para aumentar o zoom; no botão verde com uma pitada de zoom; ou nas setas verdes para mapas adjacentes.


METAR-TAF: